Salina, KS

12:47 AM CDT on June 03, 2015 (GMT -0500)
Marshall Army Air Field | | Change Station
CLOSE
Current Station
Airport
Location: Ft Riley,
Elevation: 1063 ft
Nearby Weather Stations

Elev 1063 ft 39.06 °N, 96.76 °W | Updated 49 minutes ago

Clear
Clear
74 °F
Feels Like 74 °F
N
15
Wind Variable Wind from SE
Gusts 21 mph

Today
High -- | Low -- °F
--% Chance of Precip.
Yesterday
High -- | Low -- °F
Precip. -- in
6:06 AM 8:51 PM
Full, 100% visible
Pressure 29.85 in
Visibility 10.0 miles
Clouds Mostly Cloudy 6500 ft
Dew Point 68 °F
Humidity 81%
Rainfall 0.47 in
Snow Depth Not available.
UV 0 out of 12
Pollen 7.90 out of 12
Air Quality Not available.
Flu Activity No Activity
METAR KFRI 030458Z AUTO 14013G18KT 10SM BKN065 23/20 A2987 RMK AO2 SLP106 T02340200

More Conditions Fewer Conditions

Pressure 29.85 in
Visibility 10.0 miles
Clouds Mostly Cloudy 6500 ft
Dew Point 68 °F
Humidity 81%
Rainfall 0.47 in
Snow Depth Not available.
UV 0 out of 12
Pollen 7.90 out of 12
Air Quality Not available.
Flu Activity No Activity
METAR KFRI 030458Z AUTO 14013G18KT 10SM BKN065 23/20 A2987 RMK AO2 SLP106 T02340200

More Conditions Fewer Conditions

10-Day Weather Forecast

×

Almanac

Astronomy

Jun. 03, 2015 Rise Set
Actual Time
Civil Twilight
Nautical Twilight
Astronomical Twilight
Moon
Length of Visible Light
Length of Day
Tomorrow will be .
, % of the Moon is Illuminated

Today's Extremes

State Highs State Lows

Community

WunderPhotos

Upload Photos

1,826,177 photos uploaded!

WunderBlogs® & News

Nearby

Air Quality

  Air Quality AQ Index Pollutant
Not available.

Snow Depth

Station Depth Elevation

Earthquake Activity

City Distance Mag. Time & Date
Minimum magnitude displayed is 2.5.

Coastal Water Temperatures

Place Temperature

Stations

Nearby Weather Stations

Station Location Temp. Windchill Dew Point Humidity Wind Precip. Elev Updated Type